createdAt,value
2018-02-26T00:00:10.525Z,40.72
2018-02-26T00:00:50.977Z,40.44
2018-02-26T00:01:31.340Z,40.81
2018-02-26T00:02:11.750Z,40.63
2018-02-26T00:02:52.113Z,40.44
2018-02-26T00:03:32.757Z,40.53
2018-02-26T00:04:13.331Z,39.96
2018-02-26T00:04:53.897Z,39.77
2018-02-26T00:05:34.327Z,40.91
2018-02-26T00:06:14.743Z,40.81
2018-02-26T00:06:55.188Z,41.38
2018-02-26T00:07:35.592Z,40.91
2018-02-26T00:08:16.086Z,39.96
2018-02-26T00:08:56.367Z,39.2
2018-02-26T00:09:36.732Z,38.92
2018-02-26T00:10:17.206Z,39.58
2018-02-26T00:12:35.461Z,39.68
2018-02-26T00:13:18.744Z,39.49
2018-02-26T00:13:59.161Z,39.58
2018-02-26T00:18:08.388Z,39.22
2018-02-26T00:22:44.602Z,38.84
2018-02-26T00:23:31.561Z,38.75
2018-02-26T00:24:06.671Z,39.03
2018-02-26T00:24:46.976Z,39.03
2018-02-26T00:25:27.423Z,38.65
2018-02-26T00:26:07.831Z,38.28
2018-02-26T00:26:48.215Z,38.46
2018-02-26T00:27:28.654Z,39.03
2018-02-26T00:28:09.020Z,38.45
2018-02-26T00:28:49.480Z,38.92
2018-02-26T00:29:29.777Z,39.01
2018-02-26T00:30:10.144Z,39.2
2018-02-26T00:30:50.571Z,39.01
2018-02-26T00:31:30.946Z,39.58
2018-02-26T00:32:11.449Z,39.29
2018-02-26T00:32:51.817Z,39.29
2018-02-26T00:33:32.221Z,39.96
2018-02-26T00:34:12.702Z,40.72
2018-02-26T00:34:53.022Z,40.53
2018-02-26T00:35:33.421Z,40.53
2018-02-26T00:36:13.769Z,40.63
2018-02-26T00:36:54.216Z,40.25
2018-02-26T00:37:34.593Z,40.63
2018-02-26T00:38:15.024Z,40.44
2018-02-26T00:38:55.438Z,40.06
2018-02-26T00:40:47.030Z,40.15
2018-02-26T00:41:28.972Z,40.53
2018-02-26T00:43:24.969Z,41.38
2018-02-26T00:44:08.863Z,41.19
2018-02-26T00:44:49.161Z,41.95
2018-02-26T00:45:29.588Z,41.47
2018-02-26T00:46:09.952Z,41.95
2018-02-26T00:46:50.463Z,41.57
2018-02-26T00:47:30.879Z,41
2018-02-26T00:48:11.323Z,41.47
2018-02-26T00:48:51.736Z,41.09
2018-02-26T00:49:32.184Z,40.79
2018-02-26T00:50:12.744Z,41.36
2018-02-26T00:50:53.010Z,41.83
2018-02-26T00:51:33.743Z,42.21
2018-02-26T00:52:14.012Z,42.5
2018-02-26T00:52:54.420Z,42.59
2018-02-26T00:53:34.798Z,42.97
2018-02-26T00:54:15.217Z,41.36
2018-02-26T00:54:55.600Z,41.83
2018-02-26T00:55:35.973Z,41.83
2018-02-26T00:56:16.481Z,42.21
2018-02-26T00:56:56.805Z,42.69
2018-02-26T00:57:37.203Z,42.69
2018-02-26T00:58:17.594Z,42.88
2018-02-26T00:58:58.018Z,42.59
2018-02-26T00:59:38.400Z,42.59
2018-02-26T01:00:18.867Z,42.3
2018-02-26T01:00:59.323Z,42.3
2018-02-26T01:01:39.670Z,42.5
2018-02-26T01:02:20.101Z,42.4
2018-02-26T01:03:00.547Z,42.3
2018-02-26T01:03:40.963Z,42.5
2018-02-26T01:06:02.391Z,42.11
2018-02-26T01:06:48.710Z,41.46
2018-02-26T01:07:38.010Z,41.74
2018-02-26T01:08:27.113Z,42.14
2018-02-26T01:09:07.941Z,41.09
2018-02-26T01:11:07.898Z,41.85
2018-02-26T01:11:58.539Z,41.47
2018-02-26T01:12:48.408Z,41.09
2018-02-26T01:13:29.281Z,41
2018-02-26T01:14:09.634Z,41.09
2018-02-26T01:14:50.053Z,40.81
2018-02-26T01:15:30.478Z,41.28
2018-02-26T01:16:10.871Z,40.91
2018-02-26T01:16:51.258Z,41.28
2018-02-26T01:17:31.668Z,41.09
2018-02-26T01:19:50.211Z,41.19
2018-02-26T01:20:36.783Z,40.81
2018-02-26T01:21:16.856Z,40.72
2018-02-26T01:21:57.238Z,41.28
2018-02-26T01:22:37.643Z,41.19
2018-02-26T01:23:18.062Z,41.95
2018-02-26T01:23:58.434Z,42.23
2018-02-26T01:24:38.871Z,41.85
2018-02-26T01:25:19.275Z,41.85
2018-02-26T01:25:59.664Z,41.38
2018-02-26T01:26:40.095Z,41.95
2018-02-26T01:27:20.483Z,41.95
2018-02-26T01:28:00.866Z,41.47
2018-02-26T01:28:41.312Z,41
2018-02-26T01:29:21.697Z,40.81
2018-02-26T01:30:02.151Z,40.44
2018-02-26T01:30:42.486Z,40.44
2018-02-26T01:31:22.897Z,40.63
2018-02-26T01:32:03.394Z,41.09
2018-02-26T01:32:43.862Z,41.09
2018-02-26T01:35:40.511Z,40.53
2018-02-26T01:36:30.458Z,40.72
2018-02-26T01:37:21.446Z,40.81
2018-02-26T01:39:25.173Z,40.72
2018-02-26T01:40:14.774Z,40.72
2018-02-26T01:41:04.533Z,40.53
2018-02-26T01:41:53.666Z,40.63
2018-02-26T01:42:42.030Z,40.15
2018-02-26T01:43:31.102Z,39.68
2018-02-26T01:44:20.725Z,39.68
2018-02-26T01:46:08.364Z,39.51
2018-02-26T01:46:57.449Z,39.03
2018-02-26T01:48:53.054Z,39.03
2018-02-26T01:50:54.111Z,39.03
2018-02-26T02:01:19.764Z,39.6
2018-02-26T02:02:12.382Z,39.51
2018-02-26T02:04:04.575Z,39.6
2018-02-26T02:04:53.192Z,39.6
2018-02-26T02:05:42.932Z,39.32
2018-02-26T02:06:32.482Z,39.98
2018-02-26T02:07:22.753Z,39.68
2018-02-26T02:08:15.232Z,40.34
2018-02-26T02:09:04.315Z,40.63
2018-02-26T02:09:52.900Z,40.63
2018-02-26T02:10:45.144Z,40.53
2018-02-26T02:11:33.041Z,40.25
2018-02-26T02:12:24.019Z,40.91
2018-02-26T02:21:33.463Z,42.11
2018-02-26T02:22:24.060Z,42.4
2018-02-26T02:29:42.948Z,43.82
2018-02-26T02:30:35.185Z,43.63
2018-02-26T02:31:23.903Z,43.91
2018-02-26T02:33:03.362Z,44.48
2018-02-26T02:33:56.439Z,44.01
2018-02-26T02:34:43.938Z,43.73
2018-02-26T02:37:45.357Z,44.2
2018-02-26T02:38:35.492Z,44.2
2018-02-26T02:42:39.546Z,44.29
2018-02-26T02:43:28.107Z,44.29
2018-02-26T02:44:21.014Z,44.77
2018-02-26T02:45:10.146Z,44.67
2018-02-26T02:45:59.145Z,44.01
2018-02-26T02:49:22.632Z,44.39
2018-02-26T02:55:36.937Z,45.24
2018-02-26T02:56:26.841Z,45.05
2018-02-26T02:58:08.444Z,44.39
2018-02-26T02:58:58.814Z,44.2
2018-02-26T02:59:46.965Z,44.29
2018-02-26T03:00:35.408Z,44.39
2018-02-26T03:01:29.291Z,44.65
2018-02-26T03:03:56.235Z,46.64
2018-02-26T03:05:53.534Z,47.2
2018-02-26T03:08:18.895Z,47.58
2018-02-26T03:09:12.226Z,47.39
2018-02-26T03:09:58.437Z,47.49
2018-02-26T03:13:47.283Z,47.11
2018-02-26T03:14:39.118Z,47.2
2018-02-26T03:15:28.284Z,47.39
2018-02-26T03:18:26.513Z,46.55
2018-02-26T03:27:38.487Z,46.66
2018-02-26T03:29:41.492Z,46.56
2018-02-26T03:30:33.460Z,46.47
2018-02-26T03:43:55.985Z,45.34
2018-02-26T03:45:51.204Z,45.05
2018-02-26T03:47:54.966Z,45.62
2018-02-26T03:49:56.600Z,46.56
2018-02-26T03:52:20.089Z,46.19
2018-02-26T03:53:16.208Z,46.09
2018-02-26T03:59:16.090Z,46.09
2018-02-26T04:51:45.597Z,49.12
2018-02-26T04:58:12.711Z,49.6
2018-02-26T05:01:49.966Z,49.6
2018-02-26T05:06:40.071Z,49.22
2018-02-26T05:08:28.162Z,47.91
2018-02-26T05:11:11.260Z,47.53
2018-02-26T05:13:12.560Z,47.16
2018-02-26T05:13:52.778Z,46.4
2018-02-26T05:14:32.607Z,46.12
2018-02-26T05:15:13.843Z,46.31
2018-02-26T05:15:55.963Z,46.4
2018-02-26T05:16:35.651Z,46.69
2018-02-26T05:17:16.514Z,46.21
2018-02-26T05:17:57.228Z,46.31
2018-02-26T05:18:37.662Z,46.4
2018-02-26T05:19:18.320Z,46.5
2018-02-26T05:19:58.739Z,46.02
2018-02-26T05:20:39.327Z,46.59
2018-02-26T05:21:19.760Z,46.21
2018-02-26T05:22:00.436Z,46.59
2018-02-26T05:22:42.630Z,46.02
2018-02-26T05:23:23.552Z,46.31
2018-02-26T05:24:04.530Z,46.21
2018-02-26T05:24:44.790Z,46.02
2018-02-26T05:25:25.953Z,46.21
2018-02-26T05:26:06.265Z,46.88
2018-02-26T05:26:48.266Z,46.4
2018-02-26T05:27:31.886Z,46.21
2018-02-26T05:28:12.841Z,46.5
2018-02-26T05:28:54.662Z,46.59
2018-02-26T05:29:34.457Z,46.4
2018-02-26T05:30:16.555Z,46.02
2018-02-26T05:32:35.860Z,47.53
2018-02-26T05:33:16.043Z,47.72
2018-02-26T05:33:56.429Z,48.1
2018-02-26T05:34:36.851Z,47.44
2018-02-26T05:35:17.578Z,47.91
2018-02-26T05:35:57.985Z,48.1
2018-02-26T05:36:38.370Z,48.2
2018-02-26T05:38:27.115Z,47.63
2018-02-26T05:39:07.475Z,47.91
2018-02-26T05:39:47.905Z,47.72
2018-02-26T05:40:28.304Z,47.16
2018-02-26T05:41:08.695Z,46.31
2018-02-26T05:41:49.058Z,46.4
2018-02-26T05:42:29.469Z,47.04
2018-02-26T05:43:09.986Z,47.51
2018-02-26T05:43:50.373Z,47.51
2018-02-26T05:45:39.151Z,48.27
2018-02-26T05:46:19.451Z,48.55
2018-02-26T05:46:59.821Z,48.84
2018-02-26T05:47:40.268Z,48.46
2018-02-26T05:48:20.752Z,48.44
2018-02-26T05:49:15.705Z,49.95
2018-02-26T05:49:56.095Z,50.61
2018-02-26T05:50:36.505Z,50.61
2018-02-26T05:52:49.473Z,51.37
2018-02-26T05:54:37.306Z,51.39
2018-02-26T05:57:39.341Z,50.54
2018-02-26T05:59:52.867Z,50.82
2018-02-26T06:00:33.258Z,51.77
2018-02-26T06:02:46.623Z,51.96
2018-02-26T06:03:26.935Z,51.49
2018-02-26T06:05:15.750Z,50.35
2018-02-26T06:05:56.043Z,50.26
2018-02-26T06:06:36.436Z,50.63
2018-02-26T06:08:24.283Z,51.01
2018-02-26T06:09:04.599Z,50.82
2018-02-26T06:09:45.075Z,50.54
2018-02-26T06:10:26.704Z,50.63
2018-02-26T06:15:42.367Z,49.33
2018-02-26T06:19:45.143Z,50.85
2018-02-26T06:27:06.681Z,49.79
2018-02-26T06:28:03.512Z,50.54
2018-02-26T06:28:45.631Z,50.92
2018-02-26T06:29:25.488Z,50.82
2018-02-26T06:30:06.727Z,51.3
2018-02-26T06:30:48.468Z,50.54
2018-02-26T06:31:28.775Z,50.54
2018-02-26T06:32:11.485Z,50.73
2018-02-26T06:34:36.701Z,51.68
2018-02-26T06:35:32.647Z,51.58
2018-02-26T06:39:32.142Z,52.25
2018-02-26T06:40:13.283Z,52.25
2018-02-26T06:40:54.989Z,52.31
2018-02-26T06:41:35.810Z,52.34
2018-02-26T06:42:17.639Z,52.25
2018-02-26T06:44:09.807Z,51.77
2018-02-26T06:46:19.333Z,51.3
2018-02-26T06:47:00.614Z,50.73
2018-02-26T06:47:41.029Z,49.88
2018-02-26T06:49:29.038Z,50.07
2018-02-26T06:50:10.071Z,50.63
2018-02-26T06:50:51.116Z,50.82
2018-02-26T06:52:40.765Z,50.16
2018-02-26T06:55:33.269Z,50.73
2018-02-26T06:56:14.827Z,49.62
2018-02-26T06:59:44.260Z,48.39
2018-02-26T07:00:25.598Z,47.72
2018-02-26T07:01:06.890Z,48.49
2018-02-26T07:01:47.365Z,49.36
2018-02-26T07:02:43.409Z,48.7
2018-02-26T07:03:39.306Z,48.58
2018-02-26T07:04:27.700Z,48.89
2018-02-26T07:06:16.247Z,48.29
2018-02-26T07:06:58.599Z,47.82
2018-02-26T07:07:38.384Z,49.15
2018-02-26T07:08:19.387Z,51.23
2018-02-26T07:10:34.023Z,51.89
2018-02-26T07:11:14.881Z,50.85
2018-02-26T07:13:04.499Z,50.76
2018-02-26T07:13:45.129Z,50.38
2018-02-26T07:14:26.785Z,50
2018-02-26T07:16:14.427Z,50.21
2018-02-26T07:18:28.232Z,48.98
2018-02-26T07:19:09.604Z,48.79
2018-02-26T07:19:50.683Z,48.89
2018-02-26T07:24:08.806Z,47.66
2018-02-26T07:24:49.938Z,48.22
2018-02-26T07:27:04.706Z,47.85
2018-02-26T07:29:06.055Z,48.03
2018-02-26T07:29:47.453Z,48.32
2018-02-26T07:30:28.508Z,48.89
2018-02-26T07:32:16.287Z,48.22
2018-02-26T07:32:57.011Z,47.56
2018-02-26T07:33:39.020Z,48.22
2018-02-26T07:34:19.861Z,48.22
2018-02-26T07:35:00.944Z,47.94
2018-02-26T07:37:31.009Z,47.87
2018-02-26T07:39:46.437Z,47.37
2018-02-26T07:42:08.386Z,47.2
2018-02-26T07:42:49.501Z,47.02
2018-02-26T07:43:29.393Z,47.39
2018-02-26T07:44:11.140Z,47.58
2018-02-26T07:47:13.913Z,47.11
2018-02-26T07:49:29.268Z,47.02
2018-02-26T07:51:42.346Z,46.83
2018-02-26T07:53:56.409Z,46.45
2018-02-26T07:54:36.856Z,46.26
2018-02-26T07:56:26.455Z,46.26
2018-02-26T07:57:07.257Z,46.26
2018-02-26T07:57:49.270Z,46.19
2018-02-26T07:58:28.489Z,46.28
2018-02-26T07:59:09.691Z,45.9
2018-02-26T07:59:51.379Z,45.81
2018-02-26T08:00:31.699Z,44.95
2018-02-26T08:01:13.517Z,44.67
2018-02-26T08:01:54.233Z,44.48
2018-02-26T08:02:49.595Z,43.72
2018-02-26T08:03:30.694Z,43.36
2018-02-26T08:05:18.388Z,42.89
2018-02-26T08:06:06.780Z,42.43
2018-02-26T08:06:47.329Z,42.15
2018-02-26T08:08:50.461Z,40.65
2018-02-26T08:09:32.852Z,39.98
2018-02-26T08:11:45.918Z,38.85
2018-02-26T08:12:27.771Z,38.75
2018-02-26T08:13:08.423Z,38.75
2018-02-26T08:13:49.396Z,38.75
2018-02-26T08:14:30.904Z,38.1
2018-02-26T08:17:48.003Z,37.23
2018-02-26T08:18:44.583Z,37.52
2018-02-26T08:19:40.515Z,37.04
2018-02-26T08:23:37.492Z,35.61
2018-02-26T09:01:30.873Z,38.71
2018-02-26T09:08:51.090Z,39.57
2018-02-26T09:18:04.382Z,42.86
2018-02-26T09:19:00.882Z,42.96
2018-02-26T09:19:41.494Z,42.77
2018-02-26T09:20:22.288Z,43.24
2018-02-26T09:21:18.221Z,43.91
2018-02-26T09:27:16.145Z,46.35
2018-02-26T09:29:30.673Z,44.65
2018-02-26T09:31:17.773Z,44.74
2018-02-26T09:31:57.961Z,44.27
2018-02-26T09:32:41.602Z,43.51
2018-02-26T09:33:21.853Z,44.55
2018-02-26T09:38:52.071Z,42.41
2018-02-26T09:39:33.813Z,41.77
2018-02-26T09:40:14.247Z,40.82
2018-02-26T09:42:30.068Z,39.7
2018-02-26T09:45:56.621Z,35.37
2018-02-26T09:48:12.771Z,35.56
2018-02-26T09:48:52.989Z,34.91
2018-02-26T09:49:33.398Z,33.96
2018-02-26T09:51:26.457Z,33.37
2018-02-26T09:52:09.625Z,32.42
2018-02-26T09:52:50.804Z,32.59
2018-02-26T09:53:35.255Z,33.64
2018-02-26T09:54:18.567Z,33.92
2018-02-26T09:55:01.279Z,33.36
2018-02-26T09:55:43.515Z,34.02
2018-02-26T09:56:25.381Z,34.69
2018-02-26T09:57:08.824Z,34.78
2018-02-26T10:05:34.669Z,31.1
2018-02-26T10:06:14.883Z,31.48
2018-02-26T10:45:40.381Z,33.59
2018-02-26T10:47:53.787Z,35.58
2018-02-26T11:00:42.780Z,36.99
2018-02-26T11:04:22.342Z,37.84
2018-02-26T11:05:04.774Z,37.65
2018-02-26T11:05:45.427Z,38.22
2018-02-26T11:06:25.942Z,37.46
2018-02-26T11:08:17.430Z,37.18
2018-02-26T11:08:56.218Z,37.18
2018-02-26T11:09:36.707Z,36.8
2018-02-26T11:10:18.769Z,36.51
2018-02-26T11:10:59.170Z,36.51
2018-02-26T11:11:39.822Z,36.91
2018-02-26T11:12:20.249Z,36.34
2018-02-26T11:21:11.174Z,33.87
2018-02-26T11:23:13.844Z,34.65
2018-02-26T11:25:08.468Z,33.05
2018-02-26T11:25:49.342Z,32.2
2018-02-26T11:26:29.507Z,32.29
2018-02-26T11:27:10.483Z,31.63
2018-02-26T11:27:50.644Z,31.26
2018-02-26T11:28:31.365Z,30.79
2018-02-26T11:29:11.976Z,30.51
2018-02-26T11:29:53.431Z,30.6
2018-02-26T11:30:35.617Z,30.69
2018-02-26T11:31:16.751Z,30.88
2018-02-26T11:31:57.676Z,30.98
2018-02-26T11:32:39.674Z,30.6
2018-02-26T11:33:20.236Z,29.63
2018-02-26T11:34:00.938Z,30.49
2018-02-26T11:34:42.545Z,30.68
2018-02-26T11:35:29.121Z,30.98
2018-02-26T11:37:31.253Z,30.03
2018-02-26T11:38:12.458Z,30.22
2018-02-26T11:38:53.085Z,29.84
2018-02-26T11:39:33.893Z,29.57
2018-02-26T11:40:14.597Z,28.42
2018-02-26T11:40:55.248Z,28.05
2018-02-26T11:41:37.646Z,28.52
2018-02-26T11:42:18.139Z,28.71
2018-02-26T11:43:00.302Z,29.09
2018-02-26T11:43:41.196Z,28.98
2018-02-26T11:44:22.667Z,29.36
2018-02-26T11:45:03.747Z,29.46
2018-02-26T11:45:44.408Z,29.36
2018-02-26T11:46:25.219Z,30.41
2018-02-26T11:47:07.144Z,30.41
2018-02-26T11:47:48.187Z,30.51
2018-02-26T11:48:30.152Z,30.03
2018-02-26T11:49:11.054Z,30.12
2018-02-26T11:49:52.122Z,29.74
2018-02-26T11:50:33.180Z,29.84
2018-02-26T11:51:13.898Z,28.89
2018-02-26T11:51:54.684Z,28.89
2018-02-26T11:52:35.953Z,29.55
2018-02-26T11:53:16.615Z,29.64
2018-02-26T11:53:57.672Z,28.79
2018-02-26T11:54:38.556Z,28.98
2018-02-26T11:55:19.140Z,28.6
2018-02-26T11:56:00.644Z,28.79
2018-02-26T11:56:41.092Z,28.98
2018-02-26T11:57:21.914Z,28.98
2018-02-26T11:58:03.724Z,28.68
2018-02-26T11:58:44.558Z,29.25
2018-02-26T11:59:25.270Z,29.53
2018-02-26T12:00:07.027Z,29.33
2018-02-26T12:00:48.117Z,30.28
2018-02-26T12:01:28.497Z,30.76
2018-02-26T12:02:09.583Z,31.42
2018-02-26T12:02:50.556Z,31.71
2018-02-26T12:03:31.777Z,31.42
2018-02-26T12:04:13.108Z,31.61
2018-02-26T12:04:54.957Z,30.94
2018-02-26T12:05:35.176Z,31.6
2018-02-26T12:06:17.045Z,32.75
2018-02-26T12:06:57.700Z,32.46
2018-02-26T12:07:39.055Z,32.18
2018-02-26T12:08:19.803Z,31.21
2018-02-26T12:09:01.650Z,31.5
2018-02-26T12:09:42.755Z,31.02
2018-02-26T12:10:24.483Z,31.58
2018-02-26T12:11:05.461Z,31.48
2018-02-26T12:11:47.130Z,31.1
2018-02-26T12:12:28.442Z,31.96
2018-02-26T12:13:08.971Z,33.38
2018-02-26T12:13:50.564Z,33.76
2018-02-26T12:14:31.801Z,34.25
2018-02-26T12:15:12.750Z,33.78
2018-02-26T12:15:53.653Z,33.87
2018-02-26T12:16:34.897Z,34.25
2018-02-26T12:17:15.647Z,33.97
2018-02-26T12:17:56.405Z,33.5
2018-02-26T12:18:36.892Z,32.26
2018-02-26T12:19:17.972Z,31.5
2018-02-26T12:19:58.578Z,32.35
2018-02-26T12:20:39.658Z,33.3
2018-02-26T12:21:20.772Z,33.4
2018-02-26T12:22:01.673Z,33.4
2018-02-26T12:22:42.342Z,32.83
2018-02-26T12:26:33.171Z,31.21
2018-02-26T12:27:14.503Z,31.6
2018-02-26T12:27:55.864Z,31.12
2018-02-26T12:28:36.494Z,31.41
2018-02-26T12:29:19.131Z,31.02
2018-02-26T12:30:00.510Z,30.91
2018-02-26T12:32:11.868Z,31.39
2018-02-26T12:32:56.456Z,31.58
2018-02-26T12:33:40.862Z,31.48
2018-02-26T12:34:22.560Z,31.48
2018-02-26T12:35:04.778Z,31.77
2018-02-26T12:35:45.994Z,31.01
2018-02-26T12:36:26.720Z,31.29
2018-02-26T12:37:09.117Z,31.48
2018-02-26T12:37:50.993Z,31.39
2018-02-26T12:38:33.114Z,32.24
2018-02-26T12:39:13.222Z,31.96
2018-02-26T12:39:54.712Z,31.68
2018-02-26T12:40:35.477Z,31.29
2018-02-26T12:41:18.997Z,30.63
2018-02-26T12:42:00.655Z,30.82
2018-02-26T12:42:42.055Z,31.01
2018-02-26T12:43:23.293Z,30.82
2018-02-26T12:44:04.889Z,31.1
2018-02-26T12:44:45.775Z,31.02
2018-02-26T12:45:26.384Z,30.82
2018-02-26T12:46:07.332Z,30.93
2018-02-26T12:46:48.170Z,30.65
2018-02-26T12:47:29.245Z,30.74
2018-02-26T12:48:09.757Z,29.98
2018-02-26T12:48:50.443Z,29.6
2018-02-26T12:49:31.705Z,29.98
2018-02-26T12:50:12.313Z,29.79
2018-02-26T12:50:53.578Z,29.79
2018-02-26T12:51:35.108Z,29.6
2018-02-26T12:52:15.551Z,29.22
2018-02-26T12:52:57.248Z,29.11
2018-02-26T12:53:37.859Z,29.59
2018-02-26T12:54:19.434Z,30.08
2018-02-26T12:54:59.820Z,30.36
2018-02-26T12:55:41.163Z,30.08
2018-02-26T12:56:23.541Z,29.68
2018-02-26T12:57:04.682Z,29.68
2018-02-26T12:57:45.081Z,29.3
2018-02-26T12:58:26.049Z,29.87
2018-02-26T12:59:06.698Z,30.16
2018-02-26T12:59:47.339Z,30.06
2018-02-26T13:00:28.016Z,30.06
2018-02-26T13:01:11.054Z,29.59
2018-02-26T13:01:51.344Z,29.87
2018-02-26T13:02:33.598Z,29.68
2018-02-26T13:03:14.777Z,29.59
2018-02-26T13:03:57.745Z,30.16
2018-02-26T13:04:38.785Z,30.25
2018-02-26T13:05:20.106Z,29.78
2018-02-26T13:06:01.152Z,30.44
2018-02-26T13:06:42.328Z,30.91
2018-02-26T13:07:22.458Z,30.82
2018-02-26T13:08:04.360Z,31.2
2018-02-26T13:08:45.190Z,31.58
2018-02-26T13:09:26.792Z,31.58
2018-02-26T13:10:09.785Z,32.07
2018-02-26T13:10:51.637Z,32.07
2018-02-26T13:11:34.189Z,31.88
2018-02-26T13:12:14.922Z,32.26
2018-02-26T13:12:56.138Z,32.17
2018-02-26T13:13:37.666Z,31.98
2018-02-26T13:14:18.726Z,32.17
2018-02-26T13:15:00.685Z,31.31
2018-02-26T13:15:41.586Z,31.21
2018-02-26T13:16:22.054Z,31.21
2018-02-26T13:17:02.557Z,31.31
2018-02-26T13:17:44.318Z,31.69
2018-02-26T13:18:25.266Z,31.29
2018-02-26T13:19:05.530Z,32.34
2018-02-26T13:19:46.283Z,31.87
2018-02-26T13:20:29.537Z,32.34
2018-02-26T13:21:10.828Z,32.53
2018-02-26T13:21:51.463Z,33.19
2018-02-26T13:22:31.906Z,33.38
2018-02-26T13:23:14.267Z,32.34
2018-02-26T13:23:56.513Z,31.68
2018-02-26T13:24:37.795Z,31.68
2018-02-26T13:25:19.144Z,31.01
2018-02-26T13:25:59.753Z,30.91
2018-02-26T13:26:41.105Z,31.1
2018-02-26T13:27:22.500Z,30.91
2018-02-26T13:28:02.945Z,30.91
2018-02-26T13:28:43.592Z,31.48
2018-02-26T13:29:24.671Z,31.41
2018-02-26T13:30:05.753Z,31.41
2018-02-26T13:30:48.993Z,30.93
2018-02-26T13:31:30.379Z,30.74
2018-02-26T13:32:11.805Z,30.36
2018-02-26T13:32:53.695Z,30.08
2018-02-26T13:33:34.047Z,30.55
2018-02-26T13:34:15.650Z,30.74
2018-02-26T13:34:58.161Z,30.55
2018-02-26T13:35:38.700Z,30.65
2018-02-26T13:36:19.337Z,30.27
2018-02-26T13:37:01.405Z,30.47
2018-02-26T13:37:42.813Z,30.27
2018-02-26T13:38:23.051Z,30.46
2018-02-26T13:39:04.319Z,30.66
2018-02-26T13:39:45.187Z,30.85
2018-02-26T13:40:26.547Z,30.09
2018-02-26T13:41:06.970Z,30.47
2018-02-26T13:41:49.831Z,30.09
2018-02-26T13:42:32.329Z,30.19
2018-02-26T13:43:13.757Z,30.09
2018-02-26T13:43:53.775Z,30.28
2018-02-26T13:44:35.165Z,29.98
2018-02-26T13:45:16.040Z,30.46
2018-02-26T13:55:10.122Z,34.14
2018-02-26T13:55:53.000Z,33.95
2018-02-26T13:56:34.378Z,33.94
2018-02-26T13:57:16.398Z,34.59
2018-02-26T13:57:59.345Z,35.36
2018-02-26T13:59:10.345Z,35.66
2018-02-26T14:00:50.211Z,35.07
2018-02-26T14:01:30.826Z,35.36
2018-02-26T14:02:15.003Z,36.7
2018-02-26T14:02:58.688Z,36.32
2018-02-26T14:03:39.514Z,36.22
2018-02-26T14:04:21.088Z,36.13
2018-02-26T14:05:03.966Z,36.51
2018-02-26T14:05:44.640Z,36.22
2018-02-26T14:06:26.619Z,36.42
2018-02-26T14:07:09.196Z,36.32
2018-02-26T14:07:49.935Z,36.61
2018-02-26T14:08:31.326Z,36.51
2018-02-26T14:09:11.881Z,36.32
2018-02-26T14:09:54.609Z,35.75
2018-02-26T14:10:35.681Z,35.57
2018-02-26T14:11:16.748Z,35.28
2018-02-26T14:11:57.736Z,35.28
2018-02-26T14:12:38.581Z,35.38
2018-02-26T14:13:19.492Z,36.42
2018-02-26T14:14:00.253Z,35.75
2018-02-26T14:14:41.290Z,35.28
2018-02-26T14:15:23.308Z,35.66
2018-02-26T14:16:07.182Z,35.28
2018-02-26T14:16:48.187Z,34.52
2018-02-26T14:17:35.135Z,34.99
2018-02-26T14:18:19.212Z,35.38
2018-02-26T14:18:59.760Z,34.9
2018-02-26T14:19:42.071Z,35.18
2018-02-26T14:20:26.053Z,34.8
2018-02-26T14:21:07.975Z,35.09
2018-02-26T14:21:48.231Z,34.9
2018-02-26T14:22:29.860Z,35.09
2018-02-26T14:23:14.918Z,35.28
2018-02-26T14:23:55.832Z,35.38
2018-02-26T14:24:38.657Z,34.61
2018-02-26T14:25:19.271Z,34.33
2018-02-26T14:26:00.160Z,34.42
2018-02-26T14:26:41.658Z,34.42
2018-02-26T14:27:22.974Z,34.42
2018-02-26T14:28:04.195Z,34.05
2018-02-26T14:28:44.758Z,33.95
2018-02-26T14:29:25.566Z,33.57
2018-02-26T14:30:06.051Z,33.57
2018-02-26T14:30:47.116Z,33.38
2018-02-26T14:31:27.951Z,33.48
2018-02-26T14:32:10.351Z,33.67
2018-02-26T14:32:51.451Z,34.14
2018-02-26T14:33:32.502Z,34.05
2018-02-26T14:34:17.597Z,34.05
2018-02-26T14:34:58.602Z,34.61
2018-02-26T14:35:43.231Z,34.99
2018-02-26T14:36:23.467Z,35.09
2018-02-26T14:37:06.669Z,34.8
2018-02-26T14:37:47.180Z,34.71
2018-02-26T14:38:27.878Z,34.71
2018-02-26T14:39:10.851Z,35.09
2018-02-26T14:39:52.002Z,34.9
2018-02-26T14:40:32.630Z,35.47
2018-02-26T14:41:15.037Z,35.09
2018-02-26T14:41:55.725Z,35.09
2018-02-26T14:42:36.932Z,34.9
2018-02-26T14:43:17.777Z,34.99
2018-02-26T14:43:58.704Z,34.73
2018-02-26T14:44:39.879Z,34.52
2018-02-26T14:45:21.445Z,34.52
2018-02-26T14:46:02.200Z,34.8
2018-02-26T14:46:42.697Z,34.8
2018-02-26T14:47:23.404Z,34.99
2018-02-26T14:48:04.777Z,34.99
2018-02-26T14:48:45.746Z,35.09
2018-02-26T14:49:26.827Z,35.09
2018-02-26T14:50:08.809Z,35.18
2018-02-26T14:50:48.873Z,35.18
2018-02-26T14:51:29.198Z,35.09
2018-02-26T14:52:10.163Z,35.09
2018-02-26T14:52:51.520Z,35.28
2018-02-26T14:53:35.133Z,34.61
2018-02-26T14:54:18.901Z,35.09
2018-02-26T14:55:00.410Z,35.47
2018-02-26T14:55:42.163Z,34.9
2018-02-26T14:56:23.960Z,34.71
2018-02-26T14:57:04.530Z,34.42
2018-02-26T14:57:46.568Z,34.52
2018-02-26T14:58:28.687Z,34.31
2018-02-26T14:59:10.897Z,34.59
2018-02-26T14:59:51.224Z,34.98
2018-02-26T15:00:32.062Z,35.07
2018-02-26T15:01:12.682Z,35.55
2018-02-26T15:01:53.969Z,35.74
2018-02-26T15:02:35.128Z,35.83
2018-02-26T15:03:15.417Z,36.11
2018-02-26T15:03:55.967Z,36.49
2018-02-26T15:04:36.982Z,36.59
2018-02-26T15:05:17.407Z,36.59
2018-02-26T15:05:58.018Z,36.49
2018-02-26T15:06:38.665Z,36.49
2018-02-26T15:07:22.151Z,36.68
2018-02-26T15:08:04.146Z,36.49
2018-02-26T15:08:45.846Z,37.54
2018-02-26T15:09:26.910Z,36.97
2018-02-26T15:10:09.707Z,37.52
2018-02-26T15:10:50.842Z,38.37
2018-02-26T15:11:31.527Z,38.94
2018-02-26T15:12:14.452Z,39.6
2018-02-26T15:12:55.385Z,39.51
2018-02-26T15:13:35.970Z,39.98
2018-02-26T15:14:16.757Z,40.17
2018-02-26T15:14:57.939Z,40.64
2018-02-26T15:15:39.666Z,40.45
2018-02-26T15:16:19.877Z,39.89
2018-02-26T15:17:01.048Z,40.36
2018-02-26T15:17:42.420Z,40.45
2018-02-26T15:18:30.751Z,39.9
2018-02-26T15:19:13.501Z,39.62
2018-02-26T15:19:54.361Z,38.96
2018-02-26T15:20:36.274Z,38.01
2018-02-26T15:21:19.702Z,38.29
2018-02-26T15:22:01.588Z,38.01
2018-02-26T15:22:46.301Z,38.48
2018-02-26T15:23:29.662Z,39.15
2018-02-26T15:28:22.672Z,37.18
2018-02-26T15:29:03.191Z,37.18
2018-02-26T15:29:43.497Z,36.21
2018-02-26T15:30:23.944Z,36.59
2018-02-26T15:31:04.458Z,35.83
2018-02-26T15:31:44.867Z,34.98
2018-02-26T15:32:26.149Z,36.3
2018-02-26T15:33:06.540Z,36.68
2018-02-26T15:33:46.941Z,36.68
2018-02-26T15:34:27.749Z,36.68
2018-02-26T15:35:08.141Z,35.94
2018-02-26T15:35:48.518Z,35.75
2018-02-26T15:36:28.903Z,35.66
2018-02-26T15:37:09.643Z,35.01
2018-02-26T15:37:50.236Z,34.82
2018-02-26T15:38:31.461Z,33.89
2018-02-26T15:39:11.966Z,32.54
2018-02-26T15:39:52.347Z,33.29
2018-02-26T15:40:32.735Z,34.05
2018-02-26T15:41:13.532Z,34.52
2018-02-26T15:41:54.005Z,34.42
2018-02-26T15:42:35.139Z,34.61
2018-02-26T15:43:15.725Z,34.61
2018-02-26T15:43:56.815Z,34.8
2018-02-26T15:44:37.743Z,35.47
2018-02-26T15:45:18.259Z,35.66
2018-02-26T15:45:59.611Z,35.85
2018-02-26T15:46:39.821Z,35.75
2018-02-26T15:47:20.600Z,36.3
2018-02-26T15:48:01.200Z,35.45
2018-02-26T15:48:42.652Z,36.21
2018-02-26T15:49:23.220Z,35.83
2018-02-26T15:50:04.933Z,35.45
2018-02-26T15:50:45.507Z,35.17
2018-02-26T15:51:26.366Z,34.41
2018-02-26T15:52:06.851Z,34.39
2018-02-26T15:52:47.269Z,35.05
2018-02-26T15:53:27.659Z,35.43
2018-02-26T15:54:08.074Z,36.47
2018-02-26T15:54:48.531Z,36.66
2018-02-26T15:55:29.110Z,36.19
2018-02-26T15:56:09.577Z,36.57
2018-02-26T15:56:50.158Z,36.3
2018-02-26T15:57:30.634Z,36.59
2018-02-26T15:58:11.229Z,37.54
2018-02-26T15:58:51.771Z,37.73
2018-02-26T15:59:32.220Z,37.54
2018-02-26T16:00:13.731Z,38.2
2018-02-26T16:00:54.016Z,38.67
2018-02-26T16:01:34.894Z,38.96
2018-02-26T16:02:15.411Z,38.96
2018-02-26T16:02:55.805Z,39.05
2018-02-26T16:03:36.521Z,39.24
2018-02-26T16:04:16.952Z,39.34
2018-02-26T16:04:57.657Z,39.43
2018-02-26T16:05:38.152Z,39.81
2018-02-26T16:06:18.617Z,39.81
2018-02-26T16:06:59.082Z,39.72
2018-02-26T16:07:39.620Z,39.81
2018-02-26T16:08:20.006Z,39.43